createdAt,value
2023-05-19T00:01:03.448Z,101830.20
2023-05-19T00:02:56.710Z,101826.38
2023-05-19T00:04:49.956Z,101829.56
2023-05-19T00:06:44.892Z,101831.96
2023-05-19T00:08:38.720Z,101827.39
2023-05-19T00:10:33.293Z,101830.83
2023-05-19T00:12:27.281Z,101825.92
2023-05-19T00:14:21.035Z,101829.56
2023-05-19T00:16:14.742Z,101830.10
2023-05-19T00:18:09.276Z,101827.36
2023-05-19T00:20:07.687Z,101824.65
2023-05-19T00:22:00.617Z,101824.73
2023-05-19T00:23:54.187Z,101824.84
2023-05-19T00:25:47.146Z,101827.44
2023-05-19T00:27:40.388Z,101827.14
2023-05-19T00:29:34.061Z,101821.24
2023-05-19T00:31:27.040Z,101817.64
2023-05-19T00:33:21.273Z,101813.61
2023-05-19T00:35:14.848Z,101810.45
2023-05-19T00:37:07.906Z,101815.13
2023-05-19T00:39:00.940Z,101818.59
2023-05-19T00:40:54.316Z,101816.96
2023-05-19T00:42:47.349Z,101814.60
2023-05-19T00:44:41.843Z,101818.23
2023-05-19T00:46:35.120Z,101815.63
2023-05-19T00:48:28.033Z,101817.45
2023-05-19T00:50:21.297Z,101817.48
2023-05-19T00:52:14.549Z,101817.81
2023-05-19T00:54:08.430Z,101817.86
2023-05-19T00:56:03.406Z,101823.04
2023-05-19T00:57:57.179Z,101826.94
2023-05-19T00:59:50.678Z,101826.38
2023-05-19T01:01:43.694Z,101824.43
2023-05-19T01:03:38.064Z,101821.95
2023-05-19T01:05:31.535Z,101825.20
2023-05-19T01:07:25.720Z,101827.27
2023-05-19T01:09:18.970Z,101829.33
2023-05-19T01:11:12.016Z,101827.33
2023-05-19T01:13:06.634Z,101831.11
2023-05-19T01:14:59.999Z,101828.60
2023-05-19T01:17:10.217Z,101821.86
2023-05-19T01:19:38.851Z,101822.06
2023-05-19T01:21:49.052Z,101822.14
2023-05-19T01:23:57.876Z,101814.63
2023-05-19T01:26:04.745Z,101818.92
2023-05-19T01:28:16.576Z,101815.40
2023-05-19T01:30:42.253Z,101819.66
2023-05-19T01:32:37.060Z,101821.13
2023-05-19T01:34:31.638Z,101824.15
2023-05-19T01:36:26.938Z,101824.88
2023-05-19T01:38:21.259Z,101824.89
2023-05-19T01:40:14.683Z,101830.23
2023-05-19T01:42:08.170Z,101825.98
2023-05-19T01:44:02.832Z,101831.23
2023-05-19T01:45:58.924Z,101832.00
2023-05-19T01:47:56.249Z,101830.52
2023-05-19T01:49:49.250Z,101831.63
2023-05-19T01:51:44.072Z,101831.80
2023-05-19T01:53:37.401Z,101832.79
2023-05-19T01:55:30.487Z,101837.50
2023-05-19T01:57:52.893Z,101835.70
2023-05-19T01:59:55.064Z,101834.92
2023-05-19T02:01:53.986Z,101831.25
2023-05-19T02:04:05.270Z,101836.63
2023-05-19T02:06:07.437Z,101834.42
2023-05-19T02:08:21.019Z,101830.39
2023-05-19T02:10:24.632Z,101833.52
2023-05-19T02:12:26.278Z,101834.39
2023-05-19T02:14:25.608Z,101829.52
2023-05-19T02:16:19.232Z,101830.33
2023-05-19T02:18:12.895Z,101828.23
2023-05-19T02:20:07.136Z,101830.63
2023-05-19T02:22:00.334Z,101828.80
2023-05-19T02:23:53.379Z,101826.58
2023-05-19T02:25:46.356Z,101828.81
2023-05-19T02:27:39.894Z,101830.36
2023-05-19T02:29:32.942Z,101827.96
2023-05-19T02:31:25.929Z,101829.08
2023-05-19T02:33:19.650Z,101830.27
2023-05-19T02:35:13.623Z,101834.11
2023-05-19T02:37:08.105Z,101831.28
2023-05-19T02:39:05.048Z,101830.41
2023-05-19T02:40:58.921Z,101828.98
2023-05-19T02:42:51.763Z,101832.45
2023-05-19T02:44:44.825Z,101836.27
2023-05-19T02:46:38.308Z,101830.17
2023-05-19T02:48:31.319Z,101831.92
2023-05-19T02:50:24.386Z,101837.44
2023-05-19T02:52:17.732Z,101830.73
2023-05-19T02:54:11.297Z,101827.05
2023-05-19T02:56:04.796Z,101831.19
2023-05-19T02:57:57.747Z,101828.17
2023-05-19T02:59:51.270Z,101831.77
2023-05-19T03:01:44.352Z,101829.84
2023-05-19T03:03:37.659Z,101826.83
2023-05-19T03:05:31.469Z,101824.38
2023-05-19T03:07:25.533Z,101827.40
2023-05-19T03:09:18.977Z,101826.05
2023-05-19T03:11:12.236Z,101823.56
2023-05-19T03:13:05.902Z,101826.08
2023-05-19T03:14:59.764Z,101824.86
2023-05-19T03:16:53.086Z,101822.65
2023-05-19T03:18:46.357Z,101823.46
2023-05-19T03:20:41.655Z,101815.48
2023-05-19T03:22:35.554Z,101816.77
2023-05-19T03:24:28.502Z,101814.27
2023-05-19T03:26:23.402Z,101809.52
2023-05-19T03:28:17.472Z,101809.38
2023-05-19T03:30:11.377Z,101811.21
2023-05-19T03:32:16.098Z,101813.36
2023-05-19T03:34:09.426Z,101811.19
2023-05-19T03:36:04.351Z,101810.84
2023-05-19T03:38:00.476Z,101810.58
2023-05-19T03:39:53.393Z,101814.58
2023-05-19T03:41:46.439Z,101817.92
2023-05-19T03:43:39.496Z,101818.61
2023-05-19T03:45:33.186Z,101815.63
2023-05-19T03:47:26.846Z,101815.59
2023-05-19T03:49:43.224Z,101813.66
2023-05-19T03:51:54.918Z,101817.53
2023-05-19T03:53:57.379Z,101821.27
2023-05-19T03:55:50.841Z,101823.06
2023-05-19T03:57:44.608Z,101820.27
2023-05-19T03:59:37.859Z,101821.52
2023-05-19T04:01:30.910Z,101823.23
2023-05-19T04:03:26.203Z,101819.72
2023-05-19T04:05:19.496Z,101822.57
2023-05-19T04:07:12.927Z,101824.49
2023-05-19T04:09:12.782Z,101823.89
2023-05-19T04:11:05.791Z,101823.58
2023-05-19T04:12:58.847Z,101822.95
2023-05-19T04:14:52.399Z,101823.88
2023-05-19T04:16:45.555Z,101827.38
2023-05-19T04:18:38.739Z,101824.80
2023-05-19T04:20:34.350Z,101825.59
2023-05-19T04:22:28.115Z,101825.24
2023-05-19T04:24:21.546Z,101820.29
2023-05-19T04:26:19.408Z,101817.90
2023-05-19T04:28:13.282Z,101817.27
2023-05-19T04:30:06.962Z,101818.59
2023-05-19T04:32:01.233Z,101819.35
2023-05-19T04:33:54.921Z,101821.83
2023-05-19T04:35:50.499Z,101823.85
2023-05-19T04:37:46.127Z,101824.48
2023-05-19T04:39:43.560Z,101826.87
2023-05-19T04:41:40.575Z,101823.70
2023-05-19T04:43:34.476Z,101823.86
2023-05-19T04:45:28.347Z,101828.60
2023-05-19T04:47:28.439Z,101830.66
2023-05-19T04:49:21.854Z,101833.35
2023-05-19T04:51:17.837Z,101829.64
2023-05-19T04:53:11.744Z,101833.30
2023-05-19T04:55:05.685Z,101837.90
2023-05-19T04:56:58.645Z,101839.31
2023-05-19T04:58:54.405Z,101842.65
2023-05-19T05:00:48.109Z,101838.36
2023-05-19T05:02:43.127Z,101841.20
2023-05-19T05:04:36.677Z,101839.59
2023-05-19T05:06:29.925Z,101841.63
2023-05-19T05:08:23.610Z,101842.17
2023-05-19T05:10:16.738Z,101841.60
2023-05-19T05:12:10.814Z,101842.55
2023-05-19T05:14:04.715Z,101845.08
2023-05-19T05:15:59.552Z,101841.04
2023-05-19T05:17:53.034Z,101840.23
2023-05-19T05:19:47.117Z,101837.31
2023-05-19T05:21:41.694Z,101833.22
2023-05-19T05:23:35.870Z,101829.81
2023-05-19T05:25:29.743Z,101830.71
2023-05-19T05:27:23.001Z,101832.84
2023-05-19T05:29:16.172Z,101827.27
2023-05-19T05:31:09.432Z,101830.17
2023-05-19T05:33:03.163Z,101831.78
2023-05-19T05:34:59.717Z,101834.69
2023-05-19T05:36:52.862Z,101834.00
2023-05-19T05:38:46.145Z,101835.27
2023-05-19T05:40:39.212Z,101832.07
2023-05-19T05:42:32.323Z,101833.55
2023-05-19T05:44:25.472Z,101835.11
2023-05-19T05:46:18.895Z,101833.98
2023-05-19T05:48:12.858Z,101837.06
2023-05-19T05:50:06.880Z,101837.58
2023-05-19T05:52:05.556Z,101837.55
2023-05-19T05:54:07.113Z,101838.33
2023-05-19T05:56:04.662Z,101840.88
2023-05-19T05:58:04.194Z,101837.50
2023-05-19T05:59:57.731Z,101842.05
2023-05-19T06:01:50.789Z,101843.31
2023-05-19T06:03:45.292Z,101843.17
2023-05-19T06:05:41.147Z,101841.83
2023-05-19T06:07:34.885Z,101842.35
2023-05-19T06:09:28.927Z,101846.06
2023-05-19T06:11:22.280Z,101848.21
2023-05-19T06:13:18.936Z,101848.82
2023-05-19T06:15:12.487Z,101851.42
2023-05-19T06:17:31.426Z,101849.73
2023-05-19T06:19:25.638Z,101853.17
2023-05-19T06:21:18.800Z,101853.58
2023-05-19T06:23:11.736Z,101853.17
2023-05-19T06:25:06.194Z,101852.26
2023-05-19T06:26:59.967Z,101849.64
2023-05-19T06:28:58.748Z,101851.08
2023-05-19T06:30:51.965Z,101849.57
2023-05-19T06:32:59.769Z,101849.96
2023-05-19T06:34:55.327Z,101849.78
2023-05-19T06:36:48.834Z,101851.13
2023-05-19T06:38:43.402Z,101852.37
2023-05-19T06:40:37.473Z,101855.45
2023-05-19T06:42:31.419Z,101856.36
2023-05-19T06:44:32.757Z,101858.86
2023-05-19T06:46:25.919Z,101861.33
2023-05-19T06:48:19.478Z,101859.46
2023-05-19T06:50:13.784Z,101859.44
2023-05-19T06:52:11.858Z,101860.02
2023-05-19T06:54:05.278Z,101864.13
2023-05-19T06:55:59.756Z,101857.58
2023-05-19T06:57:57.210Z,101863.75
2023-05-19T06:59:51.389Z,101862.04
2023-05-19T07:01:44.832Z,101864.35
2023-05-19T07:03:38.925Z,101863.89
2023-05-19T07:05:32.385Z,101866.41
2023-05-19T07:07:26.789Z,101870.83
2023-05-19T07:09:21.517Z,101873.73
2023-05-19T07:11:15.871Z,101872.17
2023-05-19T07:13:10.325Z,101871.37
2023-05-19T07:15:04.297Z,101873.19
2023-05-19T07:16:57.963Z,101871.67
2023-05-19T07:18:51.062Z,101866.96
2023-05-19T07:20:44.069Z,101865.69
2023-05-19T07:22:38.624Z,101865.15
2023-05-19T07:24:32.209Z,101859.83
2023-05-19T07:26:25.118Z,101859.56
2023-05-19T07:28:17.936Z,101853.78
2023-05-19T07:30:11.571Z,101854.46
2023-05-19T07:32:05.270Z,101851.27
2023-05-19T07:33:59.107Z,101849.52
2023-05-19T07:35:52.149Z,101852.60
2023-05-19T07:37:45.198Z,101848.63
2023-05-19T07:39:38.187Z,101848.61
2023-05-19T07:41:31.136Z,101849.40
2023-05-19T07:43:24.144Z,101852.05
2023-05-19T07:45:17.866Z,101852.43
2023-05-19T07:47:11.781Z,101854.73
2023-05-19T07:49:05.042Z,101857.11
2023-05-19T07:50:58.094Z,101860.63
2023-05-19T07:52:50.946Z,101858.60
2023-05-19T07:54:44.802Z,101856.71
2023-05-19T07:56:37.894Z,101854.94
2023-05-19T07:58:31.229Z,101851.38
2023-05-19T08:00:24.296Z,101852.13
2023-05-19T08:02:17.354Z,101850.89
2023-05-19T08:04:13.197Z,101853.20
2023-05-19T08:06:06.279Z,101855.94
2023-05-19T08:07:59.529Z,101855.67
2023-05-19T08:09:52.589Z,101848.80
2023-05-19T08:11:47.073Z,101850.33
2023-05-19T08:13:40.486Z,101848.70
2023-05-19T08:15:36.115Z,101846.38
2023-05-19T08:17:29.324Z,101841.81
2023-05-19T08:19:22.748Z,101846.30
2023-05-19T08:21:15.908Z,101841.77
2023-05-19T08:23:09.063Z,101842.56
2023-05-19T08:25:02.433Z,101840.59
2023-05-19T08:26:55.982Z,101835.23
2023-05-19T08:28:48.811Z,101835.02
2023-05-19T08:30:41.718Z,101837.99
2023-05-19T08:32:34.853Z,101835.63
2023-05-19T08:34:27.989Z,101834.64
2023-05-19T08:36:22.179Z,101832.55
2023-05-19T08:38:15.108Z,101833.10
2023-05-19T08:40:12.155Z,101833.70
2023-05-19T08:42:07.485Z,101836.99
2023-05-19T08:44:00.608Z,101837.02
2023-05-19T08:45:54.376Z,101839.40
2023-05-19T08:47:47.897Z,101842.36
2023-05-19T08:49:45.641Z,101838.85
2023-05-19T08:52:12.745Z,101841.69
2023-05-19T08:54:15.870Z,101840.23
2023-05-19T08:56:15.364Z,101840.67
2023-05-19T08:58:09.415Z,101838.01
2023-05-19T09:00:09.965Z,101843.52
2023-05-19T09:02:05.436Z,101841.63
2023-05-19T09:03:58.907Z,101844.48
2023-05-19T09:05:52.262Z,101839.44
2023-05-19T09:07:46.742Z,101836.14
2023-05-19T09:09:44.144Z,101840.21
2023-05-19T09:11:38.283Z,101837.13
2023-05-19T09:13:31.424Z,101836.92
2023-05-19T09:15:27.995Z,101835.30
2023-05-19T09:17:21.072Z,101836.91
2023-05-19T09:19:17.714Z,101830.50
2023-05-19T09:21:11.407Z,101829.98
2023-05-19T09:23:04.663Z,101829.89
2023-05-19T09:24:57.637Z,101834.35
2023-05-19T09:26:52.656Z,101831.27
2023-05-19T09:28:47.935Z,101832.12
2023-05-19T09:30:41.384Z,101830.42
2023-05-19T09:32:35.898Z,101833.77
2023-05-19T09:34:29.043Z,101835.45
2023-05-19T09:36:22.155Z,101835.96
2023-05-19T09:38:19.330Z,101832.16
2023-05-19T09:40:16.462Z,101837.48
2023-05-19T09:42:09.715Z,101836.06
2023-05-19T09:44:02.784Z,101834.41
2023-05-19T09:53:48.494Z,101826.32
2023-05-19T09:55:43.084Z,101822.63
2023-05-19T09:57:37.569Z,101821.14
2023-05-19T09:59:33.752Z,101821.04
2023-05-19T10:01:27.279Z,101820.63
2023-05-19T10:03:24.179Z,101822.38
2023-05-19T10:05:20.501Z,101821.23
2023-05-19T10:07:14.897Z,101823.39
2023-05-19T10:09:08.360Z,101823.56
2023-05-19T10:11:02.055Z,101824.62
2023-05-19T10:12:55.513Z,101822.56
2023-05-19T10:14:49.046Z,101821.95
2023-05-19T10:16:42.766Z,101818.44
2023-05-19T10:18:37.682Z,101816.27
2023-05-19T10:20:35.222Z,101816.98
2023-05-19T10:22:28.719Z,101817.88
2023-05-19T10:24:22.503Z,101817.85
2023-05-19T10:26:16.463Z,101819.08
2023-05-19T10:28:14.038Z,101818.70
2023-05-19T10:30:26.217Z,101815.42
2023-05-19T10:32:26.485Z,101811.93
2023-05-19T10:34:19.594Z,101811.95
2023-05-19T10:36:32.305Z,101807.89
2023-05-19T10:38:43.398Z,101813.92
2023-05-19T10:40:58.343Z,101812.80
2023-05-19T10:43:07.710Z,101817.13
2023-05-19T10:45:23.004Z,101819.05
2023-05-19T10:47:24.423Z,101817.35
2023-05-19T10:49:24.116Z,101819.17
2023-05-19T10:51:17.469Z,101820.09
2023-05-19T10:53:18.251Z,101816.55
2023-05-19T10:55:17.849Z,101819.30
2023-05-19T10:57:15.043Z,101813.91
2023-05-19T10:59:08.086Z,101817.64
2023-05-19T11:01:01.614Z,101816.27
2023-05-19T11:02:57.947Z,101815.45
2023-05-19T11:04:51.882Z,101815.70
2023-05-19T11:06:51.629Z,101816.27
2023-05-19T11:08:44.741Z,101814.02
2023-05-19T11:10:38.437Z,101811.80
2023-05-19T11:12:42.094Z,101811.67
2023-05-19T11:14:35.168Z,101811.95
2023-05-19T11:16:37.250Z,101809.79
2023-05-19T11:18:32.285Z,101813.34
2023-05-19T11:20:27.328Z,101811.34
2023-05-19T11:22:24.863Z,101815.47
2023-05-19T11:24:40.338Z,101812.88
2023-05-19T11:26:41.424Z,101813.93
2023-05-19T11:28:34.750Z,101812.80
2023-05-19T11:30:29.198Z,101811.17
2023-05-19T11:32:26.600Z,101807.77
2023-05-19T11:34:20.351Z,101803.64
2023-05-19T11:36:13.784Z,101804.35
2023-05-19T11:38:07.495Z,101804.15
2023-05-19T11:40:07.312Z,101803.64
2023-05-19T11:42:00.503Z,101801.10
2023-05-19T11:43:53.570Z,101799.67
2023-05-19T11:45:47.078Z,101799.15
2023-05-19T11:47:57.273Z,101801.40
2023-05-19T11:49:55.231Z,101803.31
2023-05-19T11:51:48.285Z,101805.48
2023-05-19T11:53:41.578Z,101800.81
2023-05-19T11:55:34.583Z,101798.77
2023-05-19T11:57:29.585Z,101795.50
2023-05-19T11:59:36.506Z,101797.73
2023-05-19T12:01:32.114Z,101801.15
2023-05-19T12:03:28.882Z,101801.73
2023-05-19T12:05:26.515Z,101805.26
2023-05-19T12:07:23.073Z,101811.03
2023-05-19T12:09:16.259Z,101807.45
2023-05-19T12:11:09.406Z,101809.88
2023-05-19T12:13:03.680Z,101807.90
2023-05-19T12:14:57.143Z,101804.92
2023-05-19T12:16:50.325Z,101803.52
2023-05-19T12:18:43.501Z,101805.24
2023-05-19T12:20:37.563Z,101806.94
2023-05-19T12:22:30.779Z,101805.55
2023-05-19T12:24:24.341Z,101810.52
2023-05-19T12:26:18.155Z,101805.73
2023-05-19T12:28:11.774Z,101814.58
2023-05-19T12:30:06.157Z,101811.54
2023-05-19T12:31:59.164Z,101814.95
2023-05-19T12:33:52.444Z,101814.76
2023-05-19T12:35:48.100Z,101809.67
2023-05-19T12:37:42.982Z,101804.15
2023-05-19T12:39:36.322Z,101800.50
2023-05-19T12:41:29.485Z,101801.20
2023-05-19T12:43:23.456Z,101801.12
2023-05-19T12:45:22.575Z,101797.02
2023-05-19T12:47:17.226Z,101796.27
2023-05-19T12:49:11.105Z,101798.02
2023-05-19T12:51:05.803Z,101801.50
2023-05-19T12:53:00.176Z,101801.92
2023-05-19T12:55:07.934Z,101796.55
2023-05-19T12:57:01.018Z,101797.55
2023-05-19T12:58:55.610Z,101800.53
2023-05-19T13:00:50.164Z,101803.01
2023-05-19T13:03:02.348Z,101805.69
2023-05-19T13:04:55.553Z,101800.72
2023-05-19T13:06:49.925Z,101800.20
2023-05-19T13:08:42.892Z,101801.44
2023-05-19T13:10:37.290Z,101801.98
2023-05-19T13:12:30.187Z,101798.61
2023-05-19T13:14:23.114Z,101793.80
2023-05-19T13:16:16.102Z,101794.69
2023-05-19T13:18:11.581Z,101800.70
2023-05-19T13:20:05.786Z,101798.56
2023-05-19T13:21:59.062Z,101803.41
2023-05-19T13:23:53.126Z,101808.77
2023-05-19T13:25:46.380Z,101808.49
2023-05-19T13:28:08.840Z,101805.07
2023-05-19T13:30:05.732Z,101803.98
2023-05-19T13:32:01.358Z,101801.45
2023-05-19T13:33:54.570Z,101800.06
2023-05-19T13:35:47.570Z,101799.01
2023-05-19T13:37:42.777Z,101796.45
2023-05-19T13:39:36.472Z,101800.48
2023-05-19T13:41:29.694Z,101797.38
2023-05-19T13:43:22.737Z,101799.42
2023-05-19T13:45:15.689Z,101799.39
2023-05-19T13:47:08.690Z,101799.52
2023-05-19T13:49:01.799Z,101798.36
2023-05-19T13:50:55.986Z,101792.88
2023-05-19T13:52:49.021Z,101794.15
2023-05-19T13:54:41.993Z,101791.57
2023-05-19T13:56:35.019Z,101792.64
2023-05-19T13:58:29.603Z,101793.39
2023-05-19T14:00:22.765Z,101791.77
2023-05-19T14:02:16.532Z,101789.20
2023-05-19T14:04:11.055Z,101788.33
2023-05-19T14:06:04.710Z,101785.58
2023-05-19T14:08:00.004Z,101786.55
2023-05-19T14:09:53.183Z,101785.76
2023-05-19T14:11:47.302Z,101787.52
2023-05-19T14:13:42.733Z,101780.31
2023-05-19T14:15:38.287Z,101780.32
2023-05-19T14:17:32.831Z,101781.33
2023-05-19T14:19:30.478Z,101777.77
2023-05-19T14:21:23.613Z,101782.29
2023-05-19T14:23:17.381Z,101778.96
2023-05-19T14:25:10.349Z,101785.29
2023-05-19T14:27:03.417Z,101783.77
2023-05-19T14:28:57.155Z,101780.77
2023-05-19T14:30:50.085Z,101780.77
2023-05-19T14:32:42.950Z,101780.36
2023-05-19T14:34:36.094Z,101780.00
2023-05-19T14:36:29.043Z,101780.81
2023-05-19T14:38:22.008Z,101787.06
2023-05-19T14:40:15.174Z,101788.23
2023-05-19T14:42:08.189Z,101788.81
2023-05-19T14:44:01.140Z,101789.21
2023-05-19T14:45:54.195Z,101790.67
2023-05-19T14:47:47.927Z,101788.41
2023-05-19T14:49:41.110Z,101792.19
2023-05-19T14:51:34.168Z,101792.48
2023-05-19T14:53:27.212Z,101793.75
2023-05-19T14:55:20.260Z,101796.23
2023-05-19T14:57:13.313Z,101795.47
2023-05-19T14:59:06.571Z,101798.70
2023-05-19T15:00:59.761Z,101796.67
2023-05-19T15:02:53.672Z,101806.45
2023-05-19T15:04:46.852Z,101802.19
2023-05-19T15:06:39.908Z,101807.19
2023-05-19T15:08:32.850Z,101807.98
2023-05-19T15:10:25.897Z,101807.93
2023-05-19T15:12:19.049Z,101809.91
2023-05-19T15:14:12.007Z,101806.98
2023-05-19T15:18:08.276Z,101808.70
2023-05-19T15:20:01.452Z,101800.71
2023-05-19T15:21:54.543Z,101802.27
2023-05-19T15:23:47.607Z,101804.95
2023-05-19T15:25:42.290Z,101803.13
2023-05-19T15:27:38.965Z,101801.20
2023-05-19T15:29:31.866Z,101800.17
2023-05-19T15:31:25.103Z,101799.13
2023-05-19T15:33:18.411Z,101795.09
2023-05-19T15:35:11.426Z,101796.39
2023-05-19T15:37:04.588Z,101794.95
2023-05-19T15:38:57.631Z,101797.79
2023-05-19T15:40:50.785Z,101800.29
2023-05-19T15:42:43.734Z,101799.75
2023-05-19T15:44:36.886Z,101798.69
2023-05-19T15:46:30.572Z,101798.84
2023-05-19T15:48:24.726Z,101792.75
2023-05-19T15:50:17.672Z,101795.81
2023-05-19T15:52:10.832Z,101796.02
2023-05-19T15:54:03.880Z,101797.48
2023-05-19T15:55:57.859Z,101795.48
2023-05-19T15:57:50.800Z,101793.36
2023-05-19T15:59:43.852Z,101796.98
2023-05-19T16:01:36.964Z,101796.46
2023-05-19T16:03:30.561Z,101798.11
2023-05-19T16:05:25.649Z,101803.70
2023-05-19T16:07:24.929Z,101797.80
2023-05-19T16:09:19.561Z,101797.63
2023-05-19T16:11:12.917Z,101799.67
2023-05-19T16:13:06.186Z,101803.70
2023-05-19T16:14:59.331Z,101802.77
2023-05-19T16:16:53.187Z,101800.77
2023-05-19T16:18:46.582Z,101797.23
2023-05-19T16:20:40.005Z,101796.38
2023-05-19T16:22:33.364Z,101797.20
2023-05-19T16:24:26.324Z,101794.60
2023-05-19T16:26:19.259Z,101789.98
2023-05-19T16:28:12.519Z,101793.44
2023-05-19T16:30:07.261Z,101791.64
2023-05-19T16:32:00.446Z,101796.68
2023-05-19T16:33:54.231Z,101789.83
2023-05-19T16:35:47.349Z,101789.73
2023-05-19T16:37:40.636Z,101787.66
2023-05-19T16:39:36.293Z,101787.02
2023-05-19T16:41:30.312Z,101792.92
2023-05-19T16:43:24.697Z,101792.21
2023-05-19T16:45:17.952Z,101788.36
2023-05-19T16:47:11.289Z,101784.95
2023-05-19T16:49:06.203Z,101787.72
2023-05-19T16:50:59.593Z,101783.30
2023-05-19T16:52:53.057Z,101780.76
2023-05-19T16:54:46.793Z,101784.86
2023-05-19T16:56:40.294Z,101786.56
2023-05-19T16:58:37.423Z,101784.77
2023-05-19T17:00:31.083Z,101781.14
2023-05-19T17:02:24.262Z,101786.58
2023-05-19T17:04:17.521Z,101780.92
2023-05-19T17:06:10.993Z,101779.15
2023-05-19T17:08:04.216Z,101776.45
2023-05-19T17:09:57.519Z,101779.60
2023-05-19T17:11:56.896Z,101785.39
2023-05-19T17:13:50.300Z,101779.34
2023-05-19T17:15:43.559Z,101776.55
2023-05-19T17:17:37.254Z,101772.94
2023-05-19T17:19:32.208Z,101773.70
2023-05-19T17:21:25.886Z,101772.84
2023-05-19T17:23:19.255Z,101771.64
2023-05-19T17:25:12.407Z,101769.86
2023-05-19T17:27:06.079Z,101772.82
2023-05-19T17:28:59.252Z,101771.42
2023-05-19T17:30:52.256Z,101771.91
2023-05-19T17:32:45.355Z,101775.39
2023-05-19T17:34:39.412Z,101774.08
2023-05-19T17:36:32.559Z,101777.48
2023-05-19T17:38:25.538Z,101774.67
2023-05-19T17:40:18.544Z,101774.14
2023-05-19T17:42:11.908Z,101770.71
2023-05-19T17:44:06.890Z,101769.83
2023-05-19T17:46:01.198Z,101764.60
2023-05-19T17:47:54.446Z,101767.57
2023-05-19T17:49:48.190Z,101766.14
2023-05-19T17:51:41.670Z,101767.10
2023-05-19T17:53:35.224Z,101766.73
2023-05-19T17:55:31.128Z,101765.10
2023-05-19T17:57:26.476Z,101760.73
2023-05-19T17:59:19.928Z,101764.98
2023-05-19T18:01:13.080Z,101766.66
2023-05-19T18:03:07.011Z,101771.40
2023-05-19T18:05:00.482Z,101770.46
2023-05-19T18:06:56.808Z,101772.10
2023-05-19T18:08:51.692Z,101773.90
2023-05-19T18:10:46.325Z,101772.00
2023-05-19T18:12:40.934Z,101771.20
2023-05-19T18:14:37.342Z,101773.46
2023-05-19T18:16:34.902Z,101775.25
2023-05-19T18:18:30.306Z,101776.51
2023-05-19T18:20:25.822Z,101777.71
2023-05-19T18:22:20.673Z,101779.81
2023-05-19T18:24:16.593Z,101778.95
2023-05-19T18:26:15.810Z,101780.96
2023-05-19T18:28:11.904Z,101783.42
2023-05-19T18:30:07.393Z,101783.07
2023-05-19T18:32:03.272Z,101784.90
2023-05-19T18:33:59.973Z,101783.01
2023-05-19T18:35:57.274Z,101787.55
2023-05-19T18:37:57.454Z,101787.92
2023-05-19T18:39:54.547Z,101787.62
2023-05-19T18:41:51.659Z,101787.70
2023-05-19T18:43:46.011Z,101786.34
2023-05-19T18:45:40.822Z,101789.61
2023-05-19T18:47:37.983Z,101788.14
2023-05-19T18:49:32.143Z,101785.95
2023-05-19T18:51:25.167Z,101784.59
2023-05-19T18:53:18.353Z,101788.00
2023-05-19T18:55:11.347Z,101789.02
2023-05-19T18:57:05.139Z,101792.66
2023-05-19T18:58:58.816Z,101794.00
2023-05-19T19:00:55.172Z,101789.38
2023-05-19T19:02:51.006Z,101790.81
2023-05-19T19:04:45.611Z,101792.86
2023-05-19T19:06:38.690Z,101794.71
2023-05-19T19:08:31.673Z,101795.73
2023-05-19T19:10:24.702Z,101792.52
2023-05-19T19:12:19.048Z,101793.27
2023-05-19T19:14:13.347Z,101787.98
2023-05-19T19:16:07.256Z,101793.64
2023-05-19T19:18:00.282Z,101792.31
2023-05-19T19:19:53.440Z,101793.25
2023-05-19T19:21:46.617Z,101794.69
2023-05-19T19:23:39.522Z,101792.70
2023-05-19T19:25:33.513Z,101795.06
2023-05-19T19:27:31.238Z,101794.64
2023-05-19T19:29:24.411Z,101787.70
2023-05-19T19:31:17.535Z,101786.38
2023-05-19T19:33:11.462Z,101784.94
2023-05-19T19:35:05.002Z,101787.87
2023-05-19T19:36:58.042Z,101789.92
2023-05-19T19:38:51.193Z,101793.09
2023-05-19T19:40:44.190Z,101792.95
2023-05-19T19:42:38.540Z,101795.34
2023-05-19T19:44:31.576Z,101800.00
2023-05-19T19:46:24.579Z,101797.90
2023-05-19T19:48:17.604Z,101799.83
2023-05-19T19:50:11.805Z,101803.36
2023-05-19T19:52:05.319Z,101805.05
2023-05-19T19:53:59.303Z,101805.41
2023-05-19T19:55:59.477Z,101808.65
2023-05-19T19:57:53.066Z,101811.04
2023-05-19T19:59:46.333Z,101810.23
2023-05-19T20:01:39.647Z,101810.16
2023-05-19T20:03:33.739Z,101811.92
2023-05-19T20:05:27.216Z,101809.53
2023-05-19T20:07:23.434Z,101809.35
2023-05-19T20:09:16.801Z,101807.77
2023-05-19T20:11:09.776Z,101807.89
2023-05-19T20:13:03.209Z,101802.89
2023-05-19T20:14:57.343Z,101806.24
2023-05-19T20:16:51.218Z,101807.25
2023-05-19T20:18:44.892Z,101807.95
2023-05-19T20:20:39.204Z,101808.95
2023-05-19T20:22:32.460Z,101808.17
2023-05-19T20:24:26.425Z,101812.98
2023-05-19T20:26:20.552Z,101810.25
2023-05-19T20:28:13.527Z,101813.14
2023-05-19T20:30:07.980Z,101815.02
2023-05-19T20:32:02.418Z,101815.92
2023-05-19T20:33:56.034Z,101818.33
2023-05-19T20:35:49.885Z,101812.44
2023-05-19T20:37:43.832Z,101815.34
2023-05-19T20:39:36.784Z,101817.07
2023-05-19T20:41:29.834Z,101815.08
2023-05-19T20:43:23.735Z,101812.92
2023-05-19T20:45:16.975Z,101816.61
2023-05-19T20:47:10.647Z,101815.21
2023-05-19T20:49:03.760Z,101812.02
2023-05-19T20:50:57.262Z,101816.56
2023-05-19T20:52:50.172Z,101808.69
2023-05-19T20:54:43.238Z,101810.66
2023-05-19T20:56:36.389Z,101812.45
2023-05-19T20:58:30.484Z,101814.55
2023-05-19T21:00:23.606Z,101811.09
2023-05-19T21:02:16.861Z,101813.92
2023-05-19T21:04:09.966Z,101814.55
2023-05-19T21:06:03.410Z,101811.95
2023-05-19T21:07:56.537Z,101813.93
2023-05-19T21:09:51.723Z,101812.14
2023-05-19T21:11:45.317Z,101811.41
2023-05-19T21:13:39.339Z,101811.27
2023-05-19T21:15:32.408Z,101808.77
2023-05-19T21:17:25.396Z,101805.05
2023-05-19T21:19:20.899Z,101805.26
2023-05-19T21:21:13.963Z,101807.21
2023-05-19T21:23:07.003Z,101804.95
2023-05-19T21:24:59.926Z,101810.31
2023-05-19T21:26:52.883Z,101810.31
2023-05-19T21:28:46.530Z,101812.08
2023-05-19T21:30:39.401Z,101815.79
2023-05-19T21:32:32.472Z,101818.02
2023-05-19T21:34:25.784Z,101815.67
2023-05-19T21:36:18.833Z,101820.45
2023-05-19T21:38:22.754Z,101821.50
2023-05-19T21:40:17.125Z,101820.64
2023-05-19T21:42:10.074Z,101823.36
2023-05-19T21:44:03.849Z,101826.42
2023-05-19T21:45:57.098Z,101827.27
2023-05-19T21:47:50.386Z,101826.34
2023-05-19T21:49:50.777Z,101827.40
2023-05-19T21:51:44.140Z,101822.95
2023-05-19T21:53:37.077Z,101824.86
2023-05-19T21:55:30.163Z,101824.54
2023-05-19T21:57:23.110Z,101819.54
2023-05-19T21:59:16.329Z,101823.67
2023-05-19T22:01:09.815Z,101820.16
2023-05-19T22:03:03.027Z,101821.85